createdAt,value
2018-01-10T00:02:00.552Z,84.91
2018-01-10T00:04:28.125Z,84.81
2018-01-10T00:06:55.690Z,84.65
2018-01-10T00:09:23.275Z,84.63
2018-01-10T00:11:50.842Z,84.70
2018-01-10T00:14:18.542Z,84.98
2018-01-10T00:16:46.106Z,85.01
2018-01-10T00:19:13.672Z,85.13
2018-01-10T00:21:41.250Z,85.23
2018-01-10T00:24:08.810Z,85.47
2018-01-10T00:26:36.459Z,85.36
2018-01-10T00:29:04.026Z,85.58
2018-01-10T00:31:31.591Z,85.72
2018-01-10T00:33:59.190Z,85.83
2018-01-10T00:36:26.819Z,85.75
2018-01-10T00:38:54.452Z,85.74
2018-01-10T00:41:22.018Z,85.73
2018-01-10T00:43:49.585Z,85.70
2018-01-10T00:46:17.158Z,85.76
2018-01-10T00:48:44.722Z,85.64
2018-01-10T00:51:12.350Z,86.01
2018-01-10T00:53:39.910Z,85.94
2018-01-10T00:56:07.463Z,85.86
2018-01-10T00:58:35.030Z,85.50
2018-01-10T01:01:02.598Z,85.27
2018-01-10T01:03:30.228Z,85.21
2018-01-10T01:05:57.843Z,85.14
2018-01-10T01:08:25.411Z,85.28
2018-01-10T01:10:53.000Z,85.50
2018-01-10T01:13:20.570Z,85.81
2018-01-10T01:15:48.182Z,85.96
2018-01-10T01:18:15.806Z,85.94
2018-01-10T01:20:43.370Z,86.01
2018-01-10T01:23:10.939Z,85.91
2018-01-10T01:25:38.494Z,85.86
2018-01-10T01:28:06.170Z,85.92
2018-01-10T01:30:33.790Z,86.48
2018-01-10T01:33:01.355Z,86.53
2018-01-10T01:35:28.934Z,86.35
2018-01-10T01:37:56.561Z,86.17
2018-01-10T01:40:24.178Z,86.04
2018-01-10T01:42:51.812Z,85.98
2018-01-10T01:45:19.435Z,85.91
2018-01-10T01:47:47.022Z,86.00
2018-01-10T01:50:14.590Z,86.02
2018-01-10T01:52:42.272Z,85.91
2018-01-10T01:55:09.845Z,86.05
2018-01-10T01:57:37.415Z,86.24
2018-01-10T02:00:04.986Z,86.34
2018-01-10T02:02:32.550Z,86.35
2018-01-10T02:05:00.163Z,86.21
2018-01-10T02:07:27.707Z,86.18
2018-01-10T02:09:55.326Z,86.12
2018-01-10T02:12:22.893Z,86.10
2018-01-10T02:14:50.457Z,86.19
2018-01-10T02:17:18.098Z,86.12
2018-01-10T02:19:45.730Z,86.11
2018-01-10T02:22:13.306Z,86.01
2018-01-10T02:24:40.942Z,85.95
2018-01-10T02:27:08.568Z,86.07
2018-01-10T02:29:36.247Z,86.08
2018-01-10T02:32:03.813Z,85.89
2018-01-10T02:34:31.375Z,85.83
2018-01-10T02:36:59.023Z,86.02
2018-01-10T02:39:26.595Z,86.00
2018-01-10T02:41:54.207Z,86.00
2018-01-10T02:44:21.836Z,85.96
2018-01-10T02:46:49.474Z,85.99
2018-01-10T02:49:17.047Z,85.96
2018-01-10T02:51:44.611Z,86.03
2018-01-10T02:54:12.287Z,85.95
2018-01-10T02:56:39.831Z,86.02
2018-01-10T02:59:07.452Z,86.08
2018-01-10T03:01:35.011Z,86.23
2018-01-10T03:04:02.578Z,86.45
2018-01-10T03:06:30.239Z,86.62
2018-01-10T03:08:57.858Z,86.82
2018-01-10T03:11:25.422Z,86.93
2018-01-10T03:13:53.059Z,86.84
2018-01-10T03:16:20.622Z,86.96
2018-01-10T03:18:48.242Z,87.05
2018-01-10T03:21:15.861Z,87.06
2018-01-10T03:23:43.498Z,87.09
2018-01-10T03:26:11.070Z,87.17
2018-01-10T03:28:38.699Z,87.08
2018-01-10T03:31:06.327Z,86.97
2018-01-10T03:33:33.958Z,86.81
2018-01-10T03:36:01.536Z,86.61
2018-01-10T03:38:29.123Z,86.46
2018-01-10T03:40:56.685Z,86.44
2018-01-10T03:43:24.297Z,86.39
2018-01-10T03:45:51.857Z,86.38
2018-01-10T03:48:19.417Z,86.30
2018-01-10T03:50:47.003Z,86.39
2018-01-10T03:53:14.630Z,86.60
2018-01-10T03:55:42.289Z,86.68
2018-01-10T03:58:09.862Z,87.10
2018-01-10T04:00:37.433Z,87.42
2018-01-10T04:03:05.071Z,87.66
2018-01-10T04:05:32.694Z,87.79
2018-01-10T04:08:00.375Z,87.80
2018-01-10T04:10:27.938Z,87.92
2018-01-10T04:12:55.502Z,88.03
2018-01-10T04:15:23.075Z,88.14
2018-01-10T04:17:50.634Z,88.28
2018-01-10T04:20:18.286Z,88.36
2018-01-10T04:22:45.892Z,88.60
2018-01-10T04:25:13.511Z,88.90
2018-01-10T04:27:41.083Z,88.93
2018-01-10T04:30:08.655Z,88.87
2018-01-10T04:32:36.276Z,89.03
2018-01-10T04:35:03.908Z,89.15
2018-01-10T04:37:31.458Z,89.19
2018-01-10T04:39:59.026Z,89.23
2018-01-10T04:42:26.594Z,89.03
2018-01-10T04:44:54.274Z,88.89
2018-01-10T04:47:21.838Z,88.90
2018-01-10T04:49:49.409Z,88.76
2018-01-10T04:52:16.992Z,88.72
2018-01-10T04:54:44.615Z,88.54
2018-01-10T04:57:12.238Z,88.44
2018-01-10T04:59:39.853Z,88.52
2018-01-10T05:02:07.418Z,88.65
2018-01-10T05:04:35.098Z,88.70
2018-01-10T05:07:02.657Z,88.67
2018-01-10T05:09:30.325Z,88.64
2018-01-10T05:11:57.890Z,88.67
2018-01-10T05:14:25.522Z,88.75
2018-01-10T05:16:53.156Z,88.65
2018-01-10T05:19:20.780Z,88.47
2018-01-10T05:21:48.396Z,88.33
2018-01-10T05:24:15.958Z,88.35
2018-01-10T05:26:43.522Z,89.17
2018-01-10T05:29:11.168Z,89.77
2018-01-10T05:31:38.807Z,89.90
2018-01-10T05:34:06.456Z,90.33
2018-01-10T05:36:34.022Z,91.00
2018-01-10T05:39:01.590Z,91.58
2018-01-10T05:41:29.165Z,91.89
2018-01-10T05:43:56.800Z,91.88
2018-01-10T05:46:24.422Z,91.85
2018-01-10T05:48:52.028Z,91.62
2018-01-10T05:51:19.597Z,91.33
2018-01-10T05:53:47.174Z,90.83
2018-01-10T05:56:14.753Z,90.01
2018-01-10T05:58:42.372Z,89.22
2018-01-10T06:01:09.945Z,88.02
2018-01-10T06:03:37.521Z,87.55
2018-01-10T06:06:05.118Z,87.35
2018-01-10T06:08:32.671Z,86.79
2018-01-10T06:11:00.275Z,86.62
2018-01-10T06:13:27.842Z,86.43
2018-01-10T06:15:55.421Z,86.48
2018-01-10T06:18:22.995Z,86.29
2018-01-10T06:20:50.571Z,86.18
2018-01-10T06:23:18.260Z,85.83
2018-01-10T06:25:45.830Z,85.77
2018-01-10T06:28:13.401Z,85.60
2018-01-10T06:30:41.049Z,85.58
2018-01-10T06:33:08.691Z,85.38
2018-01-10T06:35:36.315Z,85.13
2018-01-10T06:38:03.889Z,84.99
2018-01-10T06:40:31.462Z,85.00
2018-01-10T06:42:59.107Z,85.15
2018-01-10T06:45:26.678Z,85.11
2018-01-10T06:47:54.369Z,85.04
2018-01-10T06:50:21.943Z,84.82
2018-01-10T06:52:49.567Z,84.73
2018-01-10T06:55:17.229Z,84.83
2018-01-10T06:57:44.807Z,84.78
2018-01-10T07:00:12.446Z,84.69
2018-01-10T07:02:40.014Z,84.47
2018-01-10T07:05:07.588Z,84.23
2018-01-10T07:07:35.175Z,84.15
2018-01-10T07:10:02.804Z,84.23
2018-01-10T07:12:30.497Z,84.23
2018-01-10T07:14:58.080Z,84.00
2018-01-10T07:17:25.712Z,83.92
2018-01-10T07:19:53.352Z,83.66
2018-01-10T07:22:20.936Z,83.82
2018-01-10T07:24:48.629Z,83.59
2018-01-10T07:27:16.199Z,83.77
2018-01-10T07:29:43.769Z,83.63
2018-01-10T07:32:11.350Z,83.70
2018-01-10T07:34:38.942Z,83.88
2018-01-10T07:37:06.572Z,83.86
2018-01-10T07:39:34.147Z,83.63
2018-01-10T07:42:01.715Z,83.03
2018-01-10T07:44:29.286Z,82.86
2018-01-10T07:46:56.910Z,82.44
2018-01-10T07:49:24.535Z,82.41
2018-01-10T07:51:52.101Z,82.14
2018-01-10T07:54:19.739Z,82.31
2018-01-10T07:56:47.323Z,82.17
2018-01-10T07:59:14.951Z,82.30
2018-01-10T08:01:42.626Z,82.04
2018-01-10T08:04:10.251Z,82.46
2018-01-10T08:06:37.832Z,81.80
2018-01-10T08:09:05.447Z,81.65
2018-01-10T08:11:33.014Z,81.52
2018-01-10T08:14:00.703Z,81.31
2018-01-10T08:16:28.275Z,80.82
2018-01-10T08:18:55.907Z,80.31
2018-01-10T08:21:23.488Z,80.33
2018-01-10T08:23:51.124Z,80.32
2018-01-10T08:26:18.759Z,80.57
2018-01-10T08:28:46.327Z,80.95
2018-01-10T08:31:13.891Z,81.43
2018-01-10T08:33:41.511Z,80.22
2018-01-10T08:36:09.079Z,80.05
2018-01-10T08:38:36.704Z,79.69
2018-01-10T08:41:04.285Z,79.31
2018-01-10T08:43:31.854Z,78.67
2018-01-10T08:45:59.430Z,78.28
2018-01-10T08:48:27.850Z,77.86
2018-01-10T08:50:55.474Z,77.79
2018-01-10T08:53:23.101Z,78.04
2018-01-10T08:55:50.662Z,78.20
2018-01-10T08:58:18.311Z,78.01
2018-01-10T09:00:45.883Z,78.60
2018-01-10T09:03:13.583Z,78.61
2018-01-10T09:05:41.148Z,78.54
2018-01-10T09:08:08.706Z,78.19
2018-01-10T09:10:36.281Z,77.69
2018-01-10T09:13:03.857Z,78.26
2018-01-10T09:15:31.539Z,78.27
2018-01-10T09:17:59.168Z,77.96
2018-01-10T09:20:26.744Z,77.40
2018-01-10T09:22:54.322Z,76.80
2018-01-10T09:25:21.942Z,77.46
2018-01-10T09:27:49.618Z,77.67
2018-01-10T09:30:17.186Z,77.81
2018-01-10T09:32:44.758Z,78.28
2018-01-10T09:35:12.373Z,78.41
2018-01-10T09:37:39.939Z,78.89
2018-01-10T09:40:07.562Z,78.84
2018-01-10T09:42:35.131Z,78.96
2018-01-10T09:45:02.758Z,79.10
2018-01-10T09:47:30.342Z,79.36
2018-01-10T09:49:57.919Z,80.24
2018-01-10T09:52:25.557Z,80.67
2018-01-10T09:54:53.127Z,80.91
2018-01-10T09:57:20.759Z,80.83
2018-01-10T09:59:48.395Z,80.66
2018-01-10T10:02:16.019Z,81.02
2018-01-10T10:04:43.634Z,81.50
2018-01-10T10:07:11.258Z,81.61
2018-01-10T10:09:38.883Z,82.00
2018-01-10T10:12:06.464Z,81.88
2018-01-10T10:14:34.033Z,82.06
2018-01-10T10:17:01.731Z,81.93
2018-01-10T10:19:29.307Z,81.77
2018-01-10T10:21:56.878Z,82.25
2018-01-10T10:24:24.625Z,81.57
2018-01-10T10:26:52.265Z,81.40
2018-01-10T10:29:20.001Z,81.70
2018-01-10T10:31:47.571Z,82.16
2018-01-10T10:34:15.191Z,82.64
2018-01-10T10:36:42.823Z,82.90
2018-01-10T10:39:10.390Z,83.33
2018-01-10T10:41:38.071Z,83.20
2018-01-10T10:44:05.642Z,83.00
2018-01-10T10:46:33.207Z,83.11
2018-01-10T10:49:00.845Z,83.07
2018-01-10T10:51:28.411Z,83.21
2018-01-10T10:53:56.094Z,82.27
2018-01-10T10:56:23.671Z,82.14
2018-01-10T10:58:51.238Z,82.04
2018-01-10T11:01:18.810Z,81.78
2018-01-10T11:03:46.371Z,81.13
2018-01-10T11:06:14.074Z,80.32
2018-01-10T11:08:41.703Z,80.03
2018-01-10T11:11:09.277Z,80.59
2018-01-10T11:13:36.859Z,80.47
2018-01-10T11:16:04.436Z,80.90
2018-01-10T11:18:32.134Z,80.64
2018-01-10T11:20:59.702Z,80.50
2018-01-10T11:23:27.327Z,80.63
2018-01-10T11:25:54.984Z,80.35
2018-01-10T11:28:27.802Z,80.22
2018-01-10T11:30:55.422Z,80.06
2018-01-10T11:33:22.994Z,79.32
2018-01-10T11:35:50.624Z,79.78
2018-01-10T11:38:18.201Z,79.68
2018-01-10T11:40:45.822Z,79.79
2018-01-10T11:43:13.498Z,79.09
2018-01-10T11:45:41.077Z,79.11
2018-01-10T11:48:08.713Z,79.36
2018-01-10T11:50:36.291Z,79.37
2018-01-10T11:53:03.867Z,79.59
2018-01-10T11:55:31.618Z,79.91
2018-01-10T11:57:59.190Z,80.32
2018-01-10T12:00:26.755Z,80.04
2018-01-10T12:02:54.330Z,79.48
2018-01-10T12:05:21.901Z,79.36
2018-01-10T12:07:49.622Z,79.71
2018-01-10T12:10:17.246Z,79.78
2018-01-10T12:12:44.814Z,80.32
2018-01-10T12:15:12.388Z,80.00
2018-01-10T12:17:40.015Z,80.11
2018-01-10T12:20:07.699Z,80.47
2018-01-10T12:22:35.268Z,80.34
2018-01-10T12:25:02.854Z,80.59
2018-01-10T12:27:30.430Z,80.52
2018-01-10T12:29:57.998Z,80.60
2018-01-10T12:32:25.646Z,80.38
2018-01-10T12:34:53.217Z,81.47
2018-01-10T12:37:20.781Z,81.49
2018-01-10T12:39:48.363Z,81.80
2018-01-10T12:42:15.940Z,81.73
2018-01-10T12:44:43.571Z,82.05
2018-01-10T12:47:11.202Z,81.60
2018-01-10T12:49:38.765Z,81.99
2018-01-10T12:52:06.407Z,81.75
2018-01-10T12:54:33.987Z,81.72
2018-01-10T12:57:01.625Z,81.65
2018-01-10T12:59:29.213Z,81.78
2018-01-10T13:01:56.797Z,82.01
2018-01-10T13:04:24.437Z,81.87
2018-01-10T13:06:52.004Z,81.32
2018-01-10T13:09:19.627Z,81.08
2018-01-10T13:11:47.266Z,80.56
2018-01-10T13:14:14.842Z,80.83
2018-01-10T13:16:42.438Z,80.67
2018-01-10T13:19:10.085Z,80.42
2018-01-10T13:21:37.738Z,80.42
2018-01-10T13:24:05.295Z,80.63
2018-01-10T13:26:32.865Z,80.76
2018-01-10T13:29:00.444Z,80.68
2018-01-10T13:31:28.024Z,80.91
2018-01-10T13:33:55.658Z,80.85
2018-01-10T13:36:23.226Z,80.94
2018-01-10T13:38:50.795Z,80.70
2018-01-10T13:41:18.371Z,81.24
2018-01-10T13:43:46.015Z,81.47
2018-01-10T13:46:13.718Z,82.10
2018-01-10T13:48:41.299Z,82.41
2018-01-10T13:51:08.915Z,82.96
2018-01-10T13:53:36.490Z,83.24
2018-01-10T13:56:04.128Z,83.40
2018-01-10T13:58:31.748Z,83.39
2018-01-10T14:00:59.318Z,83.28
2018-01-10T14:03:26.886Z,83.81
2018-01-10T14:05:54.472Z,84.29
2018-01-10T14:08:22.037Z,84.76
2018-01-10T14:10:49.658Z,85.00
2018-01-10T14:13:17.290Z,85.26
2018-01-10T14:15:44.866Z,84.97
2018-01-10T14:18:12.505Z,85.00
2018-01-10T14:20:40.117Z,85.34
2018-01-10T14:23:07.751Z,85.39
2018-01-10T14:25:35.375Z,85.25
2018-01-10T14:28:03.003Z,86.20
2018-01-10T14:30:30.578Z,85.79
2018-01-10T14:32:58.150Z,85.52
2018-01-10T14:35:25.790Z,85.56
2018-01-10T14:37:53.376Z,85.64
2018-01-10T14:40:20.950Z,85.42
2018-01-10T14:42:48.506Z,85.33
2018-01-10T14:45:16.080Z,85.51
2018-01-10T14:47:43.758Z,85.69
2018-01-10T14:50:11.331Z,85.57
2018-01-10T14:52:38.896Z,86.31
2018-01-10T14:55:06.489Z,86.04
2018-01-10T14:57:34.054Z,85.76
2018-01-10T15:00:01.673Z,85.79
2018-01-10T15:02:29.231Z,85.61
2018-01-10T15:04:56.797Z,85.36
2018-01-10T15:07:24.375Z,85.20
2018-01-10T15:09:51.948Z,85.39
2018-01-10T15:12:19.570Z,85.27
2018-01-10T15:14:47.134Z,85.33
2018-01-10T15:17:14.759Z,85.40
2018-01-10T15:19:42.337Z,85.48
2018-01-10T15:22:09.917Z,85.79
2018-01-10T15:24:37.543Z,85.99
2018-01-10T15:27:05.118Z,85.96
2018-01-10T15:29:32.687Z,86.07
2018-01-10T15:32:00.266Z,85.98
2018-01-10T15:34:27.837Z,85.97
2018-01-10T15:36:55.501Z,85.98
2018-01-10T15:39:23.059Z,86.00
2018-01-10T15:41:50.626Z,85.89
2018-01-10T15:44:18.255Z,85.72
2018-01-10T15:46:45.849Z,85.71
2018-01-10T15:49:13.480Z,85.56
2018-01-10T15:51:41.050Z,85.39
2018-01-10T15:54:08.622Z,85.12
2018-01-10T15:56:36.230Z,84.99
2018-01-10T15:59:03.799Z,84.84
2018-01-10T16:01:32.255Z,84.76
2018-01-10T16:03:59.826Z,84.80
2018-01-10T16:06:27.394Z,84.68
2018-01-10T16:08:54.964Z,84.78
2018-01-10T16:11:22.591Z,84.97
2018-01-10T16:13:50.213Z,85.15
2018-01-10T16:16:17.783Z,85.23
2018-01-10T16:18:45.455Z,85.17
2018-01-10T16:21:13.044Z,85.28
2018-01-10T16:23:40.618Z,85.27
2018-01-10T16:26:08.295Z,85.13
2018-01-10T16:28:35.963Z,85.30
2018-01-10T16:31:03.588Z,85.50
2018-01-10T16:33:31.242Z,85.91
2018-01-10T16:35:58.832Z,86.18
2018-01-10T16:38:26.434Z,86.23
2018-01-10T16:40:53.996Z,86.04
2018-01-10T16:43:21.572Z,86.03
2018-01-10T16:45:49.154Z,86.26
2018-01-10T16:48:16.787Z,86.01
2018-01-10T16:50:44.398Z,86.09
2018-01-10T16:53:12.034Z,85.94
2018-01-10T16:55:39.629Z,85.83
2018-01-10T16:58:07.267Z,86.04
2018-01-10T17:00:34.906Z,86.22
2018-01-10T17:03:02.599Z,86.09
2018-01-10T17:05:30.182Z,85.94
2018-01-10T17:07:57.764Z,85.73
2018-01-10T17:10:25.329Z,85.64
2018-01-10T17:12:52.898Z,85.33
2018-01-10T17:15:20.574Z,84.91
2018-01-10T17:17:48.230Z,85.06
2018-01-10T17:20:15.791Z,85.17
2018-01-10T17:22:43.438Z,85.00
2018-01-10T17:25:11.025Z,85.26
2018-01-10T17:27:38.734Z,85.08
2018-01-10T17:30:06.383Z,84.92
2018-01-10T17:32:33.952Z,84.79
2018-01-10T17:35:01.523Z,84.72
2018-01-10T17:37:29.201Z,84.48
2018-01-10T17:39:56.856Z,84.29
2018-01-10T17:42:24.481Z,84.19
2018-01-10T17:44:52.090Z,84.28
2018-01-10T17:47:19.662Z,84.03
2018-01-10T17:49:47.287Z,83.96
2018-01-10T17:52:14.928Z,83.62
2018-01-10T17:54:42.498Z,83.86
2018-01-10T17:57:10.068Z,83.79
2018-01-10T17:59:37.652Z,84.13
2018-01-10T18:02:05.591Z,84.23
2018-01-10T18:04:33.238Z,84.20
2018-01-10T18:07:00.814Z,84.19
2018-01-10T18:09:28.383Z,84.29
2018-01-10T18:11:56.028Z,84.31
2018-01-10T18:14:23.654Z,84.15
2018-01-10T18:16:51.347Z,84.05
2018-01-10T18:19:18.927Z,84.04
2018-01-10T18:21:46.525Z,84.04
2018-01-10T18:24:14.099Z,84.20
2018-01-10T18:26:41.727Z,84.06
2018-01-10T18:29:09.357Z,84.33
2018-01-10T18:31:36.987Z,84.54
2018-01-10T18:34:04.614Z,84.46
2018-01-10T18:36:32.360Z,84.69
2018-01-10T18:38:59.959Z,84.92
2018-01-10T18:41:27.644Z,84.88
2018-01-10T18:43:55.296Z,84.93
2018-01-10T18:46:22.931Z,85.44
2018-01-10T18:48:50.535Z,85.73
2018-01-10T18:51:18.167Z,86.07
2018-01-10T18:53:45.813Z,86.14
2018-01-10T18:56:13.448Z,86.16
2018-01-10T18:58:41.046Z,86.22
2018-01-10T19:01:08.720Z,86.25
2018-01-10T19:03:36.335Z,86.33
2018-01-10T19:06:03.997Z,86.29
2018-01-10T19:08:31.565Z,86.29
2018-01-10T19:10:59.157Z,86.54
2018-01-10T19:13:26.756Z,86.39
2018-01-10T19:15:54.343Z,86.33
2018-01-10T19:18:22.061Z,86.49
2018-01-10T19:20:49.691Z,86.29
2018-01-10T19:23:17.329Z,86.26
2018-01-10T19:25:44.899Z,86.27
2018-01-10T19:28:12.458Z,86.30
2018-01-10T19:30:40.082Z,86.19
2018-01-10T19:33:07.650Z,86.38
2018-01-10T19:35:35.200Z,86.20
2018-01-10T19:38:02.793Z,85.94
2018-01-10T19:40:30.344Z,85.70
2018-01-10T19:42:57.983Z,85.52
2018-01-10T19:45:25.573Z,85.36
2018-01-10T19:47:53.161Z,85.33
2018-01-10T19:50:20.754Z,85.34
2018-01-10T19:52:48.592Z,85.18
2018-01-10T19:55:16.291Z,84.99
2018-01-10T19:57:43.905Z,84.86
2018-01-10T20:00:11.506Z,84.74
2018-01-10T20:02:39.082Z,84.60
2018-01-10T20:05:06.725Z,84.78
2018-01-10T20:07:34.361Z,84.82
2018-01-10T20:10:01.930Z,84.82
2018-01-10T20:12:29.503Z,84.82
2018-01-10T20:14:57.105Z,84.81
2018-01-10T20:17:24.683Z,84.84
2018-01-10T20:19:52.363Z,84.80
2018-01-10T20:22:19.938Z,84.64
2018-01-10T20:24:47.570Z,84.54
2018-01-10T20:27:15.145Z,84.90
2018-01-10T20:29:42.724Z,84.95
2018-01-10T20:32:10.447Z,84.72
2018-01-10T20:34:38.006Z,84.85
2018-01-10T20:37:05.638Z,84.96
2018-01-10T20:39:33.227Z,85.20
2018-01-10T20:42:00.877Z,85.28
2018-01-10T20:44:28.563Z,85.47
2018-01-10T20:46:56.143Z,85.58
2018-01-10T20:49:23.733Z,85.83
2018-01-10T20:51:51.314Z,85.94
2018-01-10T20:54:18.893Z,85.75
2018-01-10T20:56:46.514Z,85.78
2018-01-10T20:59:14.074Z,85.81
2018-01-10T21:01:41.702Z,85.66
2018-01-10T21:04:09.311Z,85.50
2018-01-10T21:06:36.943Z,85.44
2018-01-10T21:09:04.650Z,85.26
2018-01-10T21:11:32.275Z,85.16
2018-01-10T21:13:59.839Z,85.15
2018-01-10T21:16:27.466Z,85.04
2018-01-10T21:18:55.083Z,85.12
2018-01-10T21:21:22.726Z,85.42
2018-01-10T21:23:50.304Z,85.44
2018-01-10T21:26:17.876Z,85.35
2018-01-10T21:28:45.502Z,85.41
2018-01-10T21:31:13.062Z,85.69
2018-01-10T21:33:40.710Z,85.71
2018-01-10T21:36:08.291Z,85.75
2018-01-10T21:38:35.874Z,85.74
2018-01-10T21:41:03.451Z,85.95
2018-01-10T21:43:31.023Z,85.78
2018-01-10T21:45:58.647Z,85.83
2018-01-10T21:48:26.228Z,85.94
2018-01-10T21:50:53.783Z,85.89
2018-01-10T21:53:21.358Z,85.63
2018-01-10T21:55:48.899Z,85.70
2018-01-10T21:58:16.571Z,85.41
2018-01-10T22:00:44.134Z,85.27
2018-01-10T22:03:11.766Z,85.40
2018-01-10T22:05:39.351Z,85.36
2018-01-10T22:08:06.913Z,85.09
2018-01-10T22:10:34.590Z,84.68
2018-01-10T22:13:02.163Z,84.82
2018-01-10T22:15:29.734Z,84.64
2018-01-10T22:17:57.306Z,84.53
2018-01-10T22:20:24.958Z,84.34
2018-01-10T22:22:52.607Z,84.24
2018-01-10T22:25:20.185Z,84.08
2018-01-10T22:27:47.754Z,83.95
2018-01-10T22:30:15.335Z,83.80
2018-01-10T22:32:42.964Z,83.98
2018-01-10T22:35:10.646Z,84.03
2018-01-10T22:37:38.218Z,84.11
2018-01-10T22:40:05.786Z,84.06
2018-01-10T22:42:33.354Z,84.19
2018-01-10T22:45:00.971Z,84.37
2018-01-10T22:47:28.567Z,84.62
2018-01-10T22:49:56.139Z,84.73
2018-01-10T22:52:23.685Z,84.62
2018-01-10T22:54:51.261Z,84.62
2018-01-10T22:57:18.875Z,84.72
2018-01-10T22:59:46.491Z,84.75
2018-01-10T23:02:14.112Z,84.55
2018-01-10T23:04:41.680Z,84.47
2018-01-10T23:07:09.306Z,84.47
2018-01-10T23:09:36.882Z,84.37
2018-01-10T23:12:04.583Z,84.31
2018-01-10T23:14:32.146Z,84.61
2018-01-10T23:16:59.710Z,84.85
2018-01-10T23:19:27.344Z,84.90
2018-01-10T23:21:54.906Z,85.05
2018-01-10T23:24:22.523Z,85.01
2018-01-10T23:26:50.146Z,85.05
2018-01-10T23:29:17.752Z,85.18
2018-01-10T23:31:45.318Z,85.34
2018-01-10T23:34:12.946Z,85.30
2018-01-10T23:36:40.619Z,85.39
2018-01-10T23:39:08.192Z,85.28
2018-01-10T23:41:35.755Z,85.20
2018-01-10T23:44:03.327Z,85.64
2018-01-10T23:46:30.950Z,85.70
2018-01-10T23:48:58.567Z,85.83
2018-01-10T23:51:26.135Z,85.71
2018-01-10T23:53:53.699Z,85.68
2018-01-10T23:56:21.274Z,85.56
2018-01-10T23:58:48.894Z,85.86
